Brighton, Missouri
Current Conditions -  °F | °C
As of 2:52 PM on Tuesday 25 Nov 2014 (Local Time) from KSGF Reporting Station
Clear Clear  
Wind Chill: 40°   Ceiling: Unl
Heat Index: 44°   Visibility: 10mi
Dew Point: 15°   Wind: 7mph
Humidity: 31%   Direction: NA
Pressure: 30.14"   Gusts: NA
Location:  37.46°N, 93.35°W
Report Text: KSGF 252052Z VRB06KT 10SM CLR 07/M09 A3014 RMK AO2 SLP213 T00671094 56024
Loading
Personal Weather Stations






























Interactive Weather Map New forecast layout! Learn more

10-Day Weather Forecast

Advertisements
Track Severe Weather on mobile